Time;durP1;ratioP1;P1;durP2;ratioP2;P2;SDS_P1;SDS_P2;PMS_P1;PMS_P2;Temp;Humidity;BMP_temperature;BMP_pressure;BME280_temperature;BME280_humidity;BME280_pressure;Samples;Min_cycle;Max_cycle;Signal;HPM_P1;HPM_P2
2022/03/22 00:01:30;;;;;;;2.17;1.15;;;6.60;99.90;;;;;;5118070;28;20371;-71
2022/03/22 00:03:56;;;;;;;1.08;0.90;;;6.60;99.90;;;;;;5117488;28;20095;-71
2022/03/22 00:06:22;;;;;;;1.25;1.23;;;6.50;99.90;;;;;;5117745;28;20043;-71
2022/03/22 00:08:47;;;;;;;0.73;0.73;;;6.50;99.90;;;;;;5117574;28;20388;-71
2022/03/22 00:11:14;;;;;;;0.65;0.65;;;6.60;99.90;;;;;;5118325;27;20036;-71
2022/03/22 00:13:43;;;;;;;2.13;1.23;;;6.70;99.90;;;;;;5117719;28;20405;-71
2022/03/22 00:16:09;;;;;;;0.65;0.65;;;6.70;99.90;;;;;;5117802;28;20032;-71
2022/03/22 00:18:35;;;;;;;1.15;1.08;;;6.80;99.90;;;;;;5118173;28;20054;-71
2022/03/22 00:21:01;;;;;;;5.55;1.05;;;6.80;99.90;;;;;;5117446;28;20047;-71
2022/03/22 00:23:28;;;;;;;1.60;1.17;;;6.90;99.90;;;;;;5117589;28;20070;-71
2022/03/22 00:25:54;;;;;;;1.35;1.25;;;6.70;99.90;;;;;;5117193;28;20515;-71
2022/03/22 00:28:20;;;;;;;0.68;0.68;;;6.80;99.90;;;;;;5117517;28;20144;-71
2022/03/22 00:30:46;;;;;;;1.52;0.90;;;6.60;99.90;;;;;;5117786;28;20036;-71
2022/03/22 00:33:12;;;;;;;1.77;1.25;;;6.60;99.90;;;;;;5117508;28;20044;-71
2022/03/22 00:35:39;;;;;;;1.23;1.02;;;6.40;99.90;;;;;;5117423;28;20080;-71
2022/03/22 00:38:13;;;;;;;1.08;1.08;;;6.50;99.90;;;;;;5117058;28;20039;-71
2022/03/22 00:40:40;;;;;;;0.60;0.60;;;6.40;99.90;;;;;;5117287;28;20092;-71
2022/03/22 00:43:06;;;;;;;1.63;1.52;;;6.50;99.90;;;;;;5117164;28;20054;-71
2022/03/22 00:45:33;;;;;;;0.98;0.90;;;6.50;99.90;;;;;;5117141;28;20122;-71
2022/03/22 00:48:01;;;;;;;0.25;0.25;;;6.50;99.90;;;;;;5116860;28;20618;-71
2022/03/22 00:50:34;;;;;;;0.47;0.47;;;6.60;99.90;;;;;;5116595;28;20036;-71
2022/03/22 00:53:02;;;;;;;0.50;0.50;;;6.60;99.90;;;;;;5116033;28;20043;-71
2022/03/22 00:55:28;;;;;;;0.93;0.93;;;6.70;99.90;;;;;;5116907;28;20043;-71
2022/03/22 00:57:55;;;;;;;0.32;0.32;;;6.70;99.90;;;;;;5116305;28;20493;-71
2022/03/22 01:00:25;;;;;;;0.95;0.95;;;6.70;99.90;;;;;;5116522;28;20080;-71
2022/03/22 01:02:53;;;;;;;0.50;0.50;;;6.80;99.90;;;;;;5116939;28;20048;-71
2022/03/22 01:05:20;;;;;;;0.77;0.77;;;6.80;99.90;;;;;;5116611;28;20031;-71
2022/03/22 01:07:48;;;;;;;2.28;1.52;;;6.80;99.90;;;;;;5116419;28;20032;-71
2022/03/22 01:10:16;;;;;;;0.77;0.77;;;6.70;99.90;;;;;;5116410;28;20492;-71
2022/03/22 01:12:43;;;;;;;0.20;0.20;;;6.80;99.90;;;;;;5116307;27;20051;-71
2022/03/22 01:15:21;;;;;;;1.48;0.98;;;6.90;99.90;;;;;;5116228;28;20043;-71
2022/03/22 01:17:50;;;;;;;0.28;0.28;;;7.00;99.90;;;;;;5115160;28;20078;-71
2022/03/22 01:20:20;;;;;;;2.00;1.80;;;7.00;99.90;;;;;;5115960;28;20136;-71
2022/03/22 01:22:47;;;;;;;0.47;0.47;;;7.10;63.10;;;;;;5116153;27;20031;-71
2022/03/22 01:25:19;;;;;;;0.43;0.40;;;7.00;1.00;;;;;;5116629;28;20759;-71
2022/03/22 01:27:46;;;;;;;0.55;0.55;;;7.00;6.20;;;;;;5116102;28;20040;-71
2022/03/22 01:30:15;;;;;;;0.90;0.85;;;6.90;1.00;;;;;;5116786;28;20028;-71
2022/03/22 01:32:44;;;;;;;0.50;0.50;;;6.80;1.00;;;;;;5115529;28;20447;-71
2022/03/22 01:35:10;;;;;;;0.85;0.85;;;6.80;1.00;;;;;;5115820;28;20051;-71
2022/03/22 01:37:39;;;;;;;1.25;1.15;;;6.90;1.00;;;;;;5115723;28;20036;-71
2022/03/22 01:40:07;;;;;;;1.30;1.25;;;6.90;1.00;;;;;;5115553;28;20073;-71
2022/03/22 01:42:34;;;;;;;2.67;1.90;;;6.90;1.00;;;;;;5115753;28;20048;-71
2022/03/22 01:45:01;;;;;;;0.95;0.93;;;6.90;1.00;;;;;;5115707;28;20508;-71
2022/03/22 01:47:28;;;;;;;1.27;0.40;;;6.90;1.00;;;;;;5115680;28;20036;-71
2022/03/22 01:49:54;;;;;;;0.70;0.70;;;6.90;1.00;;;;;;5115770;28;20047;-71
2022/03/22 01:52:23;;;;;;;0.88;0.80;;;7.00;1.00;;;;;;5115506;28;20048;-71
2022/03/22 01:54:50;;;;;;;0.38;0.38;;;6.90;1.00;;;;;;5115842;28;20131;-71
2022/03/22 01:57:18;;;;;;;0.47;0.40;;;6.90;1.00;;;;;;5115209;28;20509;-71
2022/03/22 01:59:44;;;;;;;0.85;0.85;;;7.00;1.00;;;;;;5115444;27;20027;-71
2022/03/22 02:07:43;;;;;;;0.70;0.70;;;6.80;1.00;;;;;;5114886;28;20169;-71
2022/03/22 02:10:09;;;;;;;0.52;0.52;;;6.90;1.00;;;;;;5115060;28;20040;-71
2022/03/22 02:12:34;;;;;;;0.70;0.70;;;6.80;1.00;;;;;;5115001;28;20051;-71
2022/03/22 02:15:01;;;;;;;1.27;1.17;;;6.90;1.00;;;;;;5115831;28;20521;-71
2022/03/22 02:17:27;;;;;;;0.30;0.30;;;6.90;1.00;;;;;;5115163;28;20032;-71
2022/03/22 02:19:54;;;;;;;0.63;0.63;;;7.10;1.00;;;;;;5115499;28;20123;-71
2022/03/22 02:22:28;;;;;;;1.48;0.95;;;7.00;1.00;;;;;;5114807;28;20042;-71
2022/03/22 02:24:53;;;;;;;1.02;0.93;;;7.10;1.00;;;;;;5115466;28;20497;-71
2022/03/22 02:27:20;;;;;;;1.10;1.10;;;7.10;1.00;;;;;;5114956;28;20093;-71
2022/03/22 02:29:46;;;;;;;0.40;0.40;;;6.80;99.90;;;;;;5114743;28;20031;-71
2022/03/22 02:32:12;;;;;;;0.65;0.65;;;6.70;99.90;;;;;;5115168;28;20436;-71
2022/03/22 02:34:39;;;;;;;0.30;0.30;;;6.60;99.90;;;;;;5115333;28;20043;-71
2022/03/22 02:37:05;;;;;;;0.65;0.65;;;6.60;99.90;;;;;;5115071;28;20044;-71
2022/03/22 02:39:32;;;;;;;0.60;0.60;;;6.60;99.90;;;;;;5114923;28;20032;-71
2022/03/22 02:41:58;;;;;;;1.42;1.27;;;6.70;99.90;;;;;;5115189;28;20082;-71
2022/03/22 02:44:24;;;;;;;1.88;0.90;;;6.80;99.90;;;;;;5115239;28;20046;-71
2022/03/22 02:46:50;;;;;;;0.47;0.47;;;6.70;99.90;;;;;;5105311;28;20040;-71
2022/03/22 02:49:16;;;;;;;0.30;0.30;;;6.70;99.90;;;;;;5093232;28;20032;-71
2022/03/22 02:51:42;;;;;;;2.05;1.17;;;6.70;99.90;;;;;;5092794;28;20090;-71
2022/03/22 02:54:08;;;;;;;1.00;1.00;;;6.80;99.90;;;;;;5093715;28;20433;-71
2022/03/22 02:56:34;;;;;;;1.92;1.83;;;6.70;99.90;;;;;;5093195;28;20036;-71
2022/03/22 02:59:03;;;;;;;0.15;0.15;;;6.80;99.90;;;;;;5094718;28;20036;-71
2022/03/22 03:01:28;;;;;;;0.52;0.52;;;6.80;99.90;;;;;;5094677;28;20043;-71
2022/03/22 03:03:55;;;;;;;0.90;0.90;;;6.90;99.90;;;;;;5094970;28;20032;-71
2022/03/22 03:06:21;;;;;;;2.72;0.75;;;6.80;99.90;;;;;;5094492;28;20032;-71
2022/03/22 03:08:46;;;;;;;0.35;0.35;;;6.80;99.90;;;;;;5094937;28;20501;-71
2022/03/22 03:11:12;;;;;;;0.57;0.55;;;6.80;99.90;;;;;;5094795;28;20044;-71
2022/03/22 03:16:23;;;;;;;0.75;0.75;;;6.90;99.90;;;;;;5094219;28;20039;-71
2022/03/22 03:18:51;;;;;;;0.80;0.80;;;6.90;99.90;;;;;;5094912;28;20048;-71
2022/03/22 03:21:17;;;;;;;0.70;0.70;;;6.90;99.90;;;;;;5094250;28;20072;-71
2022/03/22 03:23:43;;;;;;;0.80;0.80;;;7.00;99.90;;;;;;5094529;28;20403;-71
2022/03/22 03:26:09;;;;;;;0.30;0.30;;;7.10;99.90;;;;;;5094187;28;20068;-71
2022/03/22 03:28:35;;;;;;;2.10;1.90;;;7.10;99.90;;;;;;5094516;28;20530;-71
2022/03/22 03:31:01;;;;;;;0.75;0.75;;;7.10;99.90;;;;;;5094696;28;20042;-71
2022/03/22 03:33:26;;;;;;;0.75;0.75;;;7.20;99.90;;;;;;5094986;28;20051;-71
2022/03/22 03:35:52;;;;;;;0.70;0.70;;;7.10;99.90;;;;;;5094248;28;20440;-71
2022/03/22 03:38:18;;;;;;;0.57;0.47;;;7.10;99.90;;;;;;5094406;28;20462;-71
2022/03/22 03:43:28;;;;;;;1.00;0.98;;;7.20;99.90;;;;;;5097507;28;20116;-71
2022/03/22 03:48:38;;;;;;;0.70;0.70;;;7.10;99.90;;;;;;5097679;28;20089;-71
2022/03/22 03:51:04;;;;;;;0.40;0.40;;;7.10;99.90;;;;;;5098144;28;20040;-71
2022/03/22 03:53:30;;;;;;;3.13;1.85;;;7.10;99.90;;;;;;5097727;28;20048;-71
2022/03/22 03:55:56;;;;;;;0.93;0.93;;;7.20;99.90;;;;;;5097818;28;20489;-71
2022/03/22 03:58:21;;;;;;;1.17;1.05;;;7.20;99.90;;;;;;5097905;28;20077;-71
2022/03/22 04:00:47;;;;;;;1.05;1.05;;;7.20;99.90;;;;;;5097953;28;20032;-71
2022/03/22 04:03:13;;;;;;;0.43;0.43;;;7.20;99.90;;;;;;5097560;28;20048;-71
2022/03/22 04:05:39;;;;;;;0.30;0.30;;;7.20;99.90;;;;;;5097176;28;20127;-71
2022/03/22 04:08:05;;;;;;;0.52;0.52;;;7.20;99.90;;;;;;5097836;28;20070;-71
2022/03/22 04:10:34;;;;;;;3.45;2.05;;;7.20;99.90;;;;;;5097211;28;20057;-71
2022/03/22 04:13:00;;;;;;;0.55;0.55;;;7.20;99.90;;;;;;5097414;28;20077;-71
2022/03/22 04:15:26;;;;;;;0.22;0.22;;;7.20;99.90;;;;;;5097301;28;20114;-71
2022/03/22 04:17:52;;;;;;;0.30;0.30;;;7.20;99.90;;;;;;5097420;28;20047;-71
2022/03/22 04:20:21;;;;;;;0.55;0.55;;;7.10;99.90;;;;;;5097432;28;20491;-71
2022/03/22 04:22:47;;;;;;;0.57;0.57;;;7.20;99.90;;;;;;5096936;28;20544;-71
2022/03/22 04:25:13;;;;;;;0.63;0.63;;;7.20;99.90;;;;;;5097199;28;20063;-71
2022/03/22 04:33:07;;;;;;;2.05;1.17;;;7.30;99.90;;;;;;5096506;28;20059;-71
2022/03/22 04:35:33;;;;;;;0.57;0.57;;;7.30;99.90;;;;;;5096282;28;20044;-71
2022/03/22 04:37:59;;;;;;;0.98;0.98;;;7.30;99.90;;;;;;5097184;28;20047;-71
2022/03/22 04:40:25;;;;;;;0.93;0.88;;;7.30;99.90;;;;;;5096878;28;20044;-71
2022/03/22 04:42:51;;;;;;;0.52;0.52;;;7.30;99.90;;;;;;5096569;28;20089;-71
2022/03/22 04:45:18;;;;;;;0.82;0.70;;;7.40;99.90;;;;;;5108018;28;20385;-71
2022/03/22 04:47:45;;;;;;;1.70;1.50;;;7.30;99.90;;;;;;5116589;28;20051;-71
2022/03/22 04:50:12;;;;;;;0.20;0.20;;;7.30;99.90;;;;;;5116866;28;20067;-73
2022/03/22 04:58:07;;;;;;;0.50;0.50;;;7.40;99.90;;;;;;5116072;28;20046;-71
2022/03/22 05:00:36;;;;;;;0.65;0.65;;;7.30;99.90;;;;;;5115746;28;20066;-71
2022/03/22 05:03:07;;;;;;;0.45;0.45;;;7.30;99.90;;;;;;5116584;28;20043;-71
2022/03/22 05:08:18;;;;;;;0.65;0.60;;;7.30;99.90;;;;;;5115942;28;20516;-71
2022/03/22 05:10:43;;;;;;;1.08;1.02;;;7.30;99.90;;;;;;5116747;28;20039;-71
2022/03/22 05:13:09;;;;;;;0.80;0.65;;;7.20;99.90;;;;;;5116242;28;20464;-71
2022/03/22 05:15:35;;;;;;;0.55;0.55;;;7.30;99.90;;;;;;5116268;28;20570;-71
2022/03/22 05:18:01;;;;;;;3.92;0.98;;;7.30;99.90;;;;;;5115910;28;20555;-71
2022/03/22 05:20:28;;;;;;;0.80;0.80;;;7.30;99.90;;;;;;5116447;28;20035;-70
2022/03/22 05:22:54;;;;;;;0.47;0.47;;;7.30;99.90;;;;;;5115866;28;20075;-70
2022/03/22 05:25:20;;;;;;;1.08;0.90;;;7.30;99.90;;;;;;5116044;28;20039;-70
2022/03/22 05:27:46;;;;;;;0.65;0.65;;;7.20;99.90;;;;;;5116014;28;20130;-70
2022/03/22 05:30:13;;;;;;;0.25;0.25;;;7.20;99.90;;;;;;5116067;28;20430;-70
2022/03/22 05:32:39;;;;;;;3.72;2.15;;;7.30;99.90;;;;;;5116249;28;20048;-70
2022/03/22 05:35:06;;;;;;;1.30;1.13;;;7.20;99.90;;;;;;5116517;27;20044;-70
2022/03/22 05:37:31;;;;;;;0.52;0.52;;;7.30;99.90;;;;;;5116066;28;20043;-70
2022/03/22 05:39:57;;;;;;;0.85;0.85;;;7.30;99.90;;;;;;5115964;28;20039;-70
2022/03/22 05:42:23;;;;;;;0.85;0.75;;;7.30;99.90;;;;;;5115980;28;20065;-70
2022/03/22 05:44:49;;;;;;;0.40;0.40;;;7.40;99.90;;;;;;5115955;28;20036;-70
2022/03/22 05:47:15;;;;;;;1.55;0.70;;;7.30;99.90;;;;;;5116029;28;20079;-70
2022/03/22 05:49:41;;;;;;;0.85;0.85;;;7.30;99.90;;;;;;5115994;28;20067;-70
2022/03/22 05:52:07;;;;;;;0.65;0.65;;;7.30;99.90;;;;;;5114793;28;20047;-70
2022/03/22 05:54:34;;;;;;;0.40;0.40;;;7.30;99.90;;;;;;5115638;28;20043;-70
2022/03/22 05:57:00;;;;;;;0.73;0.65;;;7.30;99.90;;;;;;5115453;28;20036;-70
2022/03/22 05:59:26;;;;;;;0.65;0.65;;;7.30;99.90;;;;;;5115479;28;20100;-71
2022/03/22 06:01:52;;;;;;;0.63;0.63;;;7.40;99.90;;;;;;5115167;28;20047;-71
2022/03/22 06:04:19;;;;;;;0.55;0.55;;;7.40;99.90;;;;;;5115352;28;20028;-71
2022/03/22 06:06:49;;;;;;;0.40;0.40;;;7.40;99.90;;;;;;5115509;28;20119;-71
2022/03/22 06:09:16;;;;;;;1.20;0.95;;;7.40;99.90;;;;;;5116120;28;20035;-71
2022/03/22 06:11:42;;;;;;;1.40;1.30;;;7.40;86.40;;;;;;5114183;28;20044;-71
2022/03/22 06:14:08;;;;;;;0.45;0.45;;;7.40;99.90;;;;;;5114889;28;20100;-72
2022/03/22 06:16:34;;;;;;;0.93;0.93;;;7.40;99.90;;;;;;5113980;28;20043;-72
2022/03/22 06:19:00;;;;;;;0.90;0.90;;;7.40;99.90;;;;;;5114800;28;20036;-72
2022/03/22 06:21:27;;;;;;;0.80;0.80;;;7.40;99.90;;;;;;5114803;28;20539;-72
2022/03/22 06:23:53;;;;;;;0.25;0.25;;;7.40;99.90;;;;;;5115361;28;20035;-72
2022/03/22 06:26:19;;;;;;;0.73;0.55;;;7.50;93.80;;;;;;5114286;28;20040;-72
2022/03/22 06:28:46;;;;;;;0.77;0.77;;;7.40;95.90;;;;;;5114851;28;20050;-70
2022/03/22 06:31:12;;;;;;;0.35;0.35;;;7.40;99.90;;;;;;5115341;28;20039;-71
2022/03/22 06:33:38;;;;;;;2.05;1.33;;;7.50;92.10;;;;;;5115275;28;20051;-72
2022/03/22 06:36:05;;;;;;;1.10;0.40;;;7.50;90.70;;;;;;5114847;28;20039;-73
2022/03/22 06:38:34;;;;;;;0.43;0.43;;;7.50;82.90;;;;;;5115266;28;20039;-74
2022/03/22 06:41:00;;;;;;;0.40;0.40;;;7.50;62.70;;;;;;5114605;28;20039;-73
2022/03/22 06:43:25;;;;;;;0.98;0.98;;;7.60;59.80;;;;;;5114952;28;20078;-74
2022/03/22 06:45:52;;;;;;;1.10;1.10;;;7.60;42.30;;;;;;5115173;28;20065;-74
2022/03/22 06:48:17;;;;;;;1.17;1.10;;;7.70;27.10;;;;;;5115006;28;20114;-74
2022/03/22 06:50:47;;;;;;;0.63;0.63;;;7.70;25.80;;;;;;5114945;28;20520;-74
2022/03/22 06:53:12;;;;;;;0.80;0.80;;;7.70;18.60;;;;;;5114633;28;20092;-73
2022/03/22 06:55:38;;;;;;;0.63;0.63;;;7.70;34.20;;;;;;5115220;28;20040;-74
2022/03/22 06:58:05;;;;;;;0.28;0.28;;;7.80;26.40;;;;;;5114996;28;20071;-74
2022/03/22 07:00:32;;;;;;;0.70;0.65;;;7.80;9.10;;;;;;5114763;28;20382;-74
2022/03/22 07:03:00;;;;;;;1.25;1.20;;;7.80;6.10;;;;;;5114731;28;20079;-73
2022/03/22 07:05:27;;;;;;;0.77;0.77;;;8.00;1.00;;;;;;5115141;28;20062;-74
2022/03/22 07:07:52;;;;;;;0.70;0.70;;;7.90;1.50;;;;;;5115020;28;20482;-74
2022/03/22 07:10:19;;;;;;;0.38;0.38;;;7.90;4.70;;;;;;5114736;28;20042;-74
2022/03/22 07:12:53;;;;;;;1.40;1.30;;;8.00;3.60;;;;;;5114662;28;20105;-74
2022/03/22 07:15:35;;;;;;;5.20;1.90;;;7.90;3.80;;;;;;5117243;28;20044;-74
2022/03/22 07:18:08;;;;;;;0.45;0.45;;;8.00;1.00;;;;;;5118953;28;20043;-73
2022/03/22 07:20:35;;;;;;;2.00;0.73;;;8.00;4.20;;;;;;5118382;28;20032;-74
2022/03/22 07:23:01;;;;;;;0.65;0.65;;;8.10;1.00;;;;;;5118815;28;20050;-74
2022/03/22 07:25:27;;;;;;;1.63;1.52;;;8.20;1.00;;;;;;5118457;28;20032;-74
2022/03/22 07:27:54;;;;;;;0.52;0.52;;;8.20;1.00;;;;;;5119002;28;20040;-74
2022/03/22 07:30:20;;;;;;;2.85;0.77;;;8.30;1.00;;;;;;5119405;28;20035;-74
2022/03/22 07:32:46;;;;;;;1.85;0.93;;;8.30;1.00;;;;;;5118335;28;20411;-74
2022/03/22 07:35:13;;;;;;;0.35;0.35;;;8.40;1.00;;;;;;5118256;28;20036;-74
2022/03/22 07:37:40;;;;;;;0.35;0.35;;;8.50;1.00;;;;;;5118115;28;20131;-74
2022/03/22 07:40:10;;;;;;;1.08;0.98;;;8.70;1.00;;;;;;5118450;28;20074;-73
2022/03/22 07:42:37;;;;;;;2.75;1.60;;;8.40;1.00;;;;;;5117906;28;20048;-74
2022/03/22 07:45:11;;;;;;;0.52;0.52;;;8.40;1.00;;;;;;5117166;28;20059;-74
2022/03/22 07:47:37;;;;;;;1.15;1.15;;;8.40;1.00;;;;;;5117533;28;20039;-74
2022/03/22 07:53:06;;;;;;;0.50;0.50;;;8.50;1.00;;;;;;5117266;28;20126;-74
2022/03/22 07:55:37;;;;;;;0.68;0.68;;;8.80;1.00;;;;;;5116410;28;20071;-73
2022/03/22 07:58:07;;;;;;;0.40;0.40;;;8.70;1.00;;;;;;5118220;28;20028;-74
2022/03/22 08:00:37;;;;;;;0.55;0.45;;;8.50;1.00;;;;;;5117556;28;20529;-74
2022/03/22 08:03:04;;;;;;;;;;;8.70;1.00;;;;;;5118779;28;20075;-74
2022/03/22 08:05:32;;;;;;;0.50;0.50;;;9.10;1.00;;;;;;5117569;28;19914;-74
2022/03/22 08:07:59;;;;;;;1.42;1.08;;;9.10;1.00;;;;;;5117839;28;20450;-74
2022/03/22 08:10:26;;;;;;;0.52;0.52;;;9.00;1.00;;;;;;5117535;28;20170;-74
2022/03/22 08:12:54;;;;;;;1.25;1.15;;;9.10;1.00;;;;;;5117936;28;20446;-73
2022/03/22 08:15:20;;;;;;;0.90;0.90;;;9.50;1.00;;;;;;5117771;28;20035;-74
2022/03/22 08:17:46;;;;;;;1.17;1.13;;;9.50;1.00;;;;;;5117699;28;20047;-74
2022/03/22 08:20:13;;;;;;;0.73;0.73;;;9.40;1.00;;;;;;5117912;28;20482;-74
2022/03/22 08:22:51;;;;;;;4.32;2.30;;;9.10;1.00;;;;;;5116892;28;20047;-74
2022/03/22 08:25:28;;;;;;;1.15;1.10;;;9.10;1.00;;;;;;5116695;28;20039;-73
2022/03/22 08:27:57;;;;;;;0.82;0.82;;;9.10;1.00;;;;;;5116667;28;20031;-74
2022/03/22 08:30:23;;;;;;;1.52;1.42;;;9.00;1.00;;;;;;5112373;28;20367;-74
2022/03/22 08:32:54;;;;;;;1.13;1.08;;;8.70;1.00;;;;;;5116292;28;20051;-74
2022/03/22 08:35:23;;;;;;;1.67;1.58;;;8.90;1.00;;;;;;5116628;28;20032;-74
2022/03/22 08:37:49;;;;;;;0.75;0.75;;;9.30;1.00;;;;;;5116300;28;20081;-74
2022/03/22 08:40:16;;;;;;;0.88;0.88;;;9.50;1.00;;;;;;5117598;28;20042;-74
2022/03/22 08:42:47;;;;;;;0.85;0.85;;;9.60;1.00;;;;;;5115942;28;20050;-74
2022/03/22 08:45:15;;;;;;;0.90;0.88;;;9.50;1.00;;;;;;5116737;28;20043;-74
2022/03/22 08:47:45;;;;;;;1.23;1.23;;;9.80;1.00;;;;;;5114875;28;20130;-73
2022/03/22 08:50:14;;;;;;;3.58;1.08;;;9.90;1.00;;;;;;5112596;28;20110;-74
2022/03/22 08:52:41;;;;;;;0.93;0.93;;;9.70;1.00;;;;;;5111594;28;20052;-73
2022/03/22 08:55:09;;;;;;;1.05;1.05;;;9.80;1.00;;;;;;5107049;28;20441;-73
2022/03/22 08:57:36;;;;;;;0.65;0.65;;;9.80;1.00;;;;;;5103301;28;20126;-74
2022/03/22 09:00:09;;;;;;;2.80;1.27;;;9.80;1.00;;;;;;5109180;28;20039;-74
2022/03/22 09:02:42;;;;;;;1.77;1.67;;;10.10;1.00;;;;;;5097151;28;20055;-74
2022/03/22 09:07:58;;;;;;;1.02;0.93;;;10.30;1.00;;;;;;5108559;28;20089;-74
2022/03/22 09:10:25;;;;;;;0.85;0.68;;;10.00;1.00;;;;;;5107250;28;20516;-74
2022/03/22 09:12:51;;;;;;;0.85;0.80;;;10.00;1.00;;;;;;5114031;28;20051;-74
2022/03/22 09:15:19;;;;;;;0.77;0.77;;;10.10;1.00;;;;;;5111552;28;20110;-74
2022/03/22 09:17:46;;;;;;;0.88;0.88;;;10.30;1.00;;;;;;5105374;28;20032;-75
2022/03/22 09:20:13;;;;;;;7.13;2.05;;;10.40;1.00;;;;;;5106097;28;20031;-74
2022/03/22 09:22:43;;;;;;;1.88;1.73;;;10.60;1.00;;;;;;5108115;28;20051;-74
2022/03/22 09:25:13;;;;;;;0.73;0.73;;;10.50;1.00;;;;;;5107034;28;20058;-74
2022/03/22 09:27:41;;;;;;;0.50;0.50;;;10.70;1.00;;;;;;5110269;28;20035;-74
2022/03/22 09:30:08;;;;;;;1.38;1.33;;;10.60;1.00;;;;;;5111695;28;20042;-74
2022/03/22 09:32:38;;;;;;;0.73;0.73;;;10.70;1.00;;;;;;5094387;28;20052;-74
2022/03/22 09:35:07;;;;;;;0.80;0.80;;;10.60;1.00;;;;;;5095246;28;20036;-74
2022/03/22 09:37:34;;;;;;;3.88;1.80;;;10.70;1.00;;;;;;5112409;28;20396;-74
2022/03/22 09:39:59;;;;;;;0.93;0.93;;;10.30;1.00;;;;;;5111820;28;20035;-74
2022/03/22 09:42:27;;;;;;;0.70;0.70;;;10.50;1.00;;;;;;5106657;28;20539;-74
2022/03/22 09:44:53;;;;;;;1.33;1.25;;;10.90;1.00;;;;;;5114065;28;20038;-74
2022/03/22 09:47:19;;;;;;;1.08;0.98;;;10.70;1.00;;;;;;5114893;28;20059;-74
2022/03/22 09:49:46;;;;;;;1.75;1.55;;;10.80;1.00;;;;;;5114797;28;20074;-75
2022/03/22 09:52:12;;;;;;;1.10;1.00;;;10.80;1.00;;;;;;5114108;28;20073;-75
2022/03/22 09:54:41;;;;;;;2.50;1.63;;;10.70;1.00;;;;;;5114778;28;20520;-74
2022/03/22 09:57:07;;;;;;;0.60;0.60;;;10.70;1.00;;;;;;5109832;28;20054;-74
2022/03/22 09:59:34;;;;;;;0.70;0.70;;;10.70;1.00;;;;;;5113696;28;20122;-74
2022/03/22 10:02:01;;;;;;;1.13;1.05;;;10.80;1.00;;;;;;5113954;28;20040;-74
2022/03/22 10:04:44;;;;;;;0.60;0.50;;;11.00;1.00;;;;;;5103654;28;20035;-74
2022/03/22 10:07:18;;;;;;;0.57;0.57;;;11.10;1.00;;;;;;5112529;28;20087;-75
2022/03/22 10:09:55;;;;;;;1.33;1.10;;;11.30;1.00;;;;;;5113825;28;20027;-75
2022/03/22 10:12:31;;;;;;;1.73;1.40;;;11.50;1.00;;;;;;5115016;28;20048;-74
2022/03/22 10:15:14;;;;;;;0.93;0.93;;;11.40;1.00;;;;;;5114992;28;20489;-74
2022/03/22 10:17:41;;;;;;;2.03;1.73;;;11.30;1.00;;;;;;5115247;28;20039;-74
2022/03/22 10:20:19;;;;;;;1.45;1.45;;;11.10;1.00;;;;;;5114952;28;20034;-75
2022/03/22 10:22:53;;;;;;;0.93;0.93;;;10.80;1.00;;;;;;5094637;28;20052;-75
2022/03/22 10:25:20;;;;;;;0.52;0.52;;;11.20;1.00;;;;;;5094827;28;20502;-75
2022/03/22 10:27:45;;;;;;;1.35;0.98;;;11.20;1.00;;;;;;5094670;28;20044;-75
2022/03/22 10:30:12;;;;;;;1.05;1.05;;;11.10;1.00;;;;;;5094824;28;20372;-75
2022/03/22 10:32:42;;;;;;;1.95;1.60;;;11.20;1.00;;;;;;5100931;28;20047;-74
2022/03/22 10:35:25;;;;;;;0.75;0.75;;;11.10;1.00;;;;;;5112905;28;20043;-74
2022/03/22 10:37:51;;;;;;;0.65;0.65;;;11.10;1.00;;;;;;5098754;28;20402;-74
2022/03/22 10:40:29;;;;;;;2.28;1.38;;;11.20;1.00;;;;;;5101507;28;20032;-74
2022/03/22 10:43:00;;;;;;;0.77;0.68;;;11.30;1.00;;;;;;5114963;28;20046;-74
2022/03/22 10:45:30;;;;;;;1.90;1.23;;;11.50;1.00;;;;;;5114115;28;20032;-74
2022/03/22 10:47:57;;;;;;;1.23;1.13;;;11.70;1.00;;;;;;5114606;28;20067;-74
2022/03/22 10:50:24;;;;;;;1.77;1.02;;;11.20;1.00;;;;;;5118791;28;20088;-74
2022/03/22 10:52:54;;;;;;;1.60;1.50;;;11.20;1.00;;;;;;5119013;28;20052;-74
2022/03/22 10:55:22;;;;;;;0.98;0.98;;;11.20;1.00;;;;;;5119257;28;20039;-74
2022/03/22 10:57:50;;;;;;;2.28;2.05;;;11.20;1.00;;;;;;5115821;28;20063;-74
2022/03/22 11:00:17;;;;;;;1.65;1.08;;;11.30;1.00;;;;;;5114548;28;20092;-74
2022/03/22 11:02:47;;;;;;;1.10;1.10;;;11.60;1.00;;;;;;5118771;28;20047;-74
2022/03/22 11:05:14;;;;;;;1.02;0.88;;;11.70;1.00;;;;;;5119294;28;20110;-74
2022/03/22 11:07:42;;;;;;;1.58;1.48;;;11.40;1.00;;;;;;5118168;28;20505;-76
2022/03/22 11:10:08;;;;;;;0.50;0.50;;;11.20;1.00;;;;;;5118426;28;20031;-74
2022/03/22 11:12:35;;;;;;;1.08;1.08;;;11.60;1.00;;;;;;5118048;28;20067;-75
2022/03/22 11:15:03;;;;;;;0.45;0.45;;;11.40;1.00;;;;;;5118710;28;20082;-74
2022/03/22 11:17:34;;;;;;;0.75;0.75;;;11.60;1.00;;;;;;5118072;28;20114;-73
2022/03/22 11:20:01;;;;;;;;;;;11.70;1.00;;;;;;5110319;28;20080;-74
2022/03/22 11:22:29;;;;;;;1.98;1.80;;;11.80;1.00;;;;;;5104483;28;19914;-74
2022/03/22 11:25:13;;;;;;;1.33;1.17;;;11.80;1.00;;;;;;5115905;28;20047;-75
2022/03/22 11:27:39;;;;;;;1.48;1.05;;;11.80;1.00;;;;;;5118089;28;20076;-74
2022/03/22 11:30:07;;;;;;;0.73;0.73;;;11.70;1.00;;;;;;5118739;28;20039;-74
2022/03/22 11:35:24;;;;;;;7.88;1.38;;;11.40;1.00;;;;;;5118024;28;20092;-74
2022/03/22 11:38:00;;;;;;;0.75;0.75;;;11.40;1.00;;;;;;5118269;28;20035;-74
2022/03/22 11:43:15;;;;;;;0.82;0.75;;;11.60;1.00;;;;;;5112684;28;20070;-74
2022/03/22 11:45:51;;;;;;;0.52;0.52;;;11.50;1.00;;;;;;5106698;28;20032;-74
2022/03/22 11:48:18;;;;;;;1.65;1.05;;;11.30;1.00;;;;;;5110081;28;20555;-74
2022/03/22 11:50:45;;;;;;;2.90;1.35;;;11.30;1.00;;;;;;5100808;28;20032;-74
2022/03/22 11:53:19;;;;;;;0.43;0.43;;;11.30;1.00;;;;;;5118243;28;20044;-74
2022/03/22 11:55:52;;;;;;;1.77;0.90;;;11.50;1.00;;;;;;5111650;28;20032;-74
2022/03/22 11:58:20;;;;;;;1.08;1.08;;;11.60;1.00;;;;;;5103964;28;20084;-74
2022/03/22 12:00:56;;;;;;;1.30;1.20;;;11.70;1.00;;;;;;5104425;27;20123;-74
2022/03/22 12:03:28;;;;;;;1.35;1.25;;;11.60;1.00;;;;;;5112534;28;20040;-74
2022/03/22 12:05:54;;;;;;;1.00;1.00;;;11.70;1.00;;;;;;5101076;27;20036;-74
2022/03/22 12:08:20;;;;;;;1.00;1.00;;;11.50;1.00;;;;;;5106513;28;20402;-74
2022/03/22 12:10:51;;;;;;;2.28;1.27;;;11.70;1.00;;;;;;5116769;28;20031;-74
2022/03/22 12:13:17;;;;;;;0.57;0.57;;;11.60;1.00;;;;;;5105045;28;20093;-74
2022/03/22 12:15:43;;;;;;;3.40;1.95;;;11.50;1.00;;;;;;5112633;28;20036;-74
2022/03/22 12:18:13;;;;;;;0.55;0.55;;;11.60;1.00;;;;;;5111136;28;20076;-74
2022/03/22 12:20:42;;;;;;;1.02;1.00;;;11.60;1.00;;;;;;5117058;28;20044;-73
2022/03/22 12:23:08;;;;;;;1.85;1.10;;;11.50;1.00;;;;;;5112089;28;20130;-74
2022/03/22 12:25:36;;;;;;;2.15;1.10;;;11.40;1.00;;;;;;5117256;28;20035;-75
2022/03/22 12:28:07;;;;;;;1.27;1.17;;;11.30;1.00;;;;;;5108891;27;20036;-74
2022/03/22 12:30:35;;;;;;;1.40;1.30;;;11.30;1.00;;;;;;5113476;28;20118;-75
2022/03/22 12:33:06;;;;;;;0.63;0.63;;;11.30;1.00;;;;;;5108754;28;20050;-74
2022/03/22 12:35:32;;;;;;;0.82;0.82;;;11.50;1.00;;;;;;5114366;28;20124;-75
2022/03/22 12:37:57;;;;;;;1.35;1.30;;;11.80;1.00;;;;;;5099967;28;20040;-75
2022/03/22 12:40:24;;;;;;;0.73;0.73;;;11.90;1.00;;;;;;5103057;28;20035;-74
2022/03/22 12:42:52;;;;;;;2.90;1.63;;;11.80;1.00;;;;;;5111453;27;20048;-74
2022/03/22 12:45:19;;;;;;;0.50;0.50;;;11.70;1.00;;;;;;5103581;28;20047;-75
2022/03/22 12:47:48;;;;;;;0.52;0.52;;;11.60;1.00;;;;;;5112495;28;20044;-75
2022/03/22 12:50:15;;;;;;;0.55;0.55;;;11.60;99.90;;;;;;5108966;28;20043;-74
2022/03/22 12:52:41;;;;;;;0.75;0.65;;;11.60;99.90;;;;;;5097694;28;20051;-74
2022/03/22 12:55:09;;;;;;;1.45;1.25;;;11.60;99.90;;;;;;5101033;28;20128;-75
2022/03/22 12:57:37;;;;;;;0.90;0.90;;;11.60;1.00;;;;;;5096990;28;20044;-75
2022/03/22 13:00:07;;;;;;;1.15;1.15;;;11.50;1.00;;;;;;5101218;28;20047;-74
2022/03/22 13:02:36;;;;;;;1.13;1.13;;;11.70;1.00;;;;;;5098430;28;20043;-74
2022/03/22 13:05:02;;;;;;;1.35;1.25;;;12.00;1.00;;;;;;5116307;28;20114;-74
2022/03/22 13:07:28;;;;;;;0.55;0.55;;;12.30;1.00;;;;;;5102175;28;20044;-74
2022/03/22 13:12:40;;;;;;;0.75;0.75;;;12.40;1.00;;;;;;5094823;28;20058;-74
2022/03/22 13:15:09;;;;;;;1.48;1.38;;;12.00;1.00;;;;;;5098562;28;20067;-75
2022/03/22 13:17:43;;;;;;;2.03;1.17;;;12.00;99.90;;;;;;5113162;28;20035;-74
2022/03/22 13:20:17;;;;;;;0.70;0.70;;;12.10;1.00;;;;;;5110447;28;20032;-74
2022/03/22 13:23:00;;;;;;;1.20;0.88;;;12.10;1.00;;;;;;5111386;28;20046;-74
2022/03/22 13:25:35;;;;;;;0.63;0.63;;;12.40;1.00;;;;;;5108641;28;20039;-74
2022/03/22 13:28:08;;;;;;;0.57;0.57;;;12.30;99.90;;;;;;5111296;28;20058;-74
2022/03/22 13:30:35;;;;;;;0.60;0.60;;;12.30;1.00;;;;;;5106519;28;20032;-74
2022/03/22 13:33:30;;;;;;;2.00;0.82;;;12.10;1.00;;;;;;5104107;28;20105;-74
2022/03/22 13:36:04;;;;;;;0.40;0.40;;;12.20;1.00;;;;;;5096135;28;20058;-74
2022/03/22 13:38:33;;;;;;;0.68;0.68;;;12.10;1.00;;;;;;5114234;28;20042;-74
2022/03/22 13:41:03;;;;;;;0.50;0.50;;;11.90;1.00;;;;;;5102929;28;20032;-74
2022/03/22 13:43:44;;;;;;;0.65;0.65;;;11.70;1.00;;;;;;5095774;28;20127;-75
2022/03/22 13:46:11;;;;;;;0.80;0.80;;;11.60;1.00;;;;;;5114940;28;20502;-75